createdAt,value
2017-11-01T00:00:36.403Z,0
2017-11-01T00:01:36.051Z,0
2017-11-01T00:02:35.694Z,0
2017-11-01T00:03:35.348Z,0
2017-11-01T00:04:35.332Z,0
2017-11-01T00:05:34.979Z,0
2017-11-01T00:06:35.636Z,0
2017-11-01T00:07:35.607Z,0
2017-11-01T00:08:35.252Z,0
2017-11-01T00:09:35.577Z,0
2017-11-01T00:10:35.234Z,0
2017-11-01T00:11:35.895Z,0
2017-11-01T00:12:35.858Z,0
2017-11-01T00:13:35.835Z,0
2017-11-01T00:14:36.156Z,0
2017-11-01T00:15:35.467Z,0
2017-11-01T00:16:35.452Z,0
2017-11-01T00:17:35.432Z,0
2017-11-01T00:18:36.094Z,0
2017-11-01T00:19:35.397Z,0
2017-11-01T00:20:36.049Z,0
2017-11-01T00:21:35.695Z,0
2017-11-01T00:22:36.010Z,0
2017-11-01T00:23:34.996Z,0
2017-11-01T00:24:35.650Z,0
2017-11-01T00:25:35.295Z,0
2017-11-01T00:26:35.953Z,0
2017-11-01T00:27:35.920Z,0
2017-11-01T00:28:35.587Z,0
2017-11-01T00:29:35.223Z,0
2017-11-01T00:30:34.869Z,0
2017-11-01T00:31:35.857Z,0
2017-11-01T00:32:35.496Z,0
2017-11-01T00:33:35.545Z,0
2017-11-01T00:34:35.469Z,0
2017-11-01T00:35:34.785Z,0
2017-11-01T00:36:34.767Z,0
2017-11-01T00:37:34.758Z,0
2017-11-01T00:38:34.761Z,0
2017-11-01T00:39:35.430Z,0
2017-11-01T00:40:35.025Z,0
2017-11-01T00:41:35.011Z,0
2017-11-01T00:42:35.337Z,0
2017-11-01T00:43:35.640Z,0
2017-11-01T00:44:34.973Z,0
2017-11-01T00:45:34.603Z,0
2017-11-01T00:46:34.934Z,0
2017-11-01T00:47:34.572Z,0
2017-11-01T00:48:35.231Z,0
2017-11-01T00:49:35.211Z,0
2017-11-01T00:50:35.536Z,0
2017-11-01T00:51:35.191Z,0
2017-11-01T00:52:34.491Z,0
2017-11-01T00:53:34.473Z,0
2017-11-01T00:54:34.782Z,0
2017-11-01T00:55:34.100Z,0
2017-11-01T00:56:34.418Z,0
2017-11-01T00:57:34.736Z,0
2017-11-01T00:58:34.716Z,0
2017-11-01T00:59:34.424Z,0
2017-11-01T01:00:34.676Z,0
2017-11-01T01:01:34.656Z,0
2017-11-01T01:02:34.640Z,0
2017-11-01T01:03:34.958Z,0
2017-11-01T01:04:34.949Z,0
2017-11-01T01:05:35.255Z,0
2017-11-01T01:06:34.576Z,0
2017-11-01T01:07:34.906Z,0
2017-11-01T01:08:34.530Z,0
2017-11-01T01:09:34.856Z,0
2017-11-01T01:10:34.169Z,0
2017-11-01T01:11:34.490Z,0
2017-11-01T01:12:33.802Z,0
2017-11-01T01:13:35.121Z,0
2017-11-01T01:14:34.542Z,0
2017-11-01T01:15:34.091Z,0
2017-11-01T01:16:34.739Z,0
2017-11-01T01:17:34.045Z,0
2017-11-01T01:18:34.376Z,0
2017-11-01T01:19:34.346Z,0
2017-11-01T01:20:34.993Z,0
2017-11-01T01:21:34.314Z,0
2017-11-01T01:22:34.972Z,0
2017-11-01T01:23:34.606Z,0
2017-11-01T01:24:34.270Z,0
2017-11-01T01:25:34.581Z,0
2017-11-01T01:26:34.224Z,0
2017-11-01T01:27:33.870Z,0
2017-11-01T01:28:34.202Z,0
2017-11-01T01:29:34.161Z,0
2017-11-01T01:30:33.813Z,0
2017-11-01T01:31:33.802Z,0
2017-11-01T01:32:34.456Z,0
2017-11-01T01:33:34.426Z,0
2017-11-01T01:34:34.480Z,0
2017-11-01T01:35:34.065Z,0
2017-11-01T01:36:33.715Z,0
2017-11-01T01:37:34.030Z,0
2017-11-01T01:38:34.019Z,0
2017-11-01T01:39:34.664Z,0
2017-11-01T01:40:33.983Z,0
2017-11-01T01:41:33.628Z,0
2017-11-01T01:42:33.934Z,0
2017-11-01T01:43:33.919Z,0
2017-11-01T01:44:34.240Z,0
2017-11-01T01:45:34.552Z,0
2017-11-01T01:46:33.530Z,0
2017-11-01T01:47:34.184Z,0
2017-11-01T01:48:34.165Z,0
2017-11-01T01:49:33.813Z,0
2017-11-01T01:50:33.458Z,0
2017-11-01T01:51:33.779Z,0
2017-11-01T01:52:34.111Z,0
2017-11-01T01:53:33.071Z,0
2017-11-01T01:54:33.727Z,0
2017-11-01T01:55:34.043Z,0
2017-11-01T01:56:33.360Z,0
2017-11-01T01:57:34.004Z,0
2017-11-01T01:58:33.662Z,0
2017-11-01T01:59:33.299Z,0
2017-11-01T02:00:33.651Z,0
2017-11-01T02:01:33.274Z,0
2017-11-01T02:02:34.268Z,0
2017-11-01T02:03:33.910Z,0
2017-11-01T02:04:33.214Z,0
2017-11-01T02:05:34.200Z,0
2017-11-01T02:06:33.180Z,0
2017-11-01T02:07:33.495Z,0
2017-11-01T02:08:33.815Z,0
2017-11-01T02:09:33.467Z,0
2017-11-01T02:10:33.781Z,0
2017-11-01T02:11:33.424Z,0
2017-11-01T02:12:33.761Z,0
2017-11-01T02:13:33.400Z,0
2017-11-01T02:14:33.369Z,0
2017-11-01T02:15:33.693Z,0
2017-11-01T02:16:33.683Z,0
2017-11-01T02:17:33.992Z,0
2017-11-01T02:18:32.970Z,0
2017-11-01T02:19:32.619Z,0
2017-11-01T02:20:33.284Z,0
2017-11-01T02:21:33.926Z,0
2017-11-01T02:22:32.905Z,0
2017-11-01T02:23:33.217Z,0
2017-11-01T02:24:33.198Z,0
2017-11-01T02:25:33.513Z,0
2017-11-01T02:26:33.172Z,0
2017-11-01T02:27:33.833Z,0
2017-11-01T02:28:33.133Z,0
2017-11-01T02:29:33.119Z,0
2017-11-01T02:30:33.097Z,0
2017-11-01T02:31:33.077Z,0
2017-11-01T02:32:33.410Z,0
2017-11-01T02:33:33.719Z,0
2017-11-01T02:34:33.363Z,0
2017-11-01T02:35:33.021Z,0
2017-11-01T02:36:33.006Z,0
2017-11-01T02:37:32.646Z,0
2017-11-01T02:38:32.964Z,0
2017-11-01T02:39:33.278Z,0
2017-11-01T02:40:32.585Z,0
2017-11-01T02:41:32.907Z,0
2017-11-01T02:42:33.223Z,0
2017-11-01T02:43:32.205Z,0
2017-11-01T02:44:32.852Z,0
2017-11-01T02:45:32.513Z,0
2017-11-01T02:46:33.168Z,0
2017-11-01T02:47:32.830Z,0
2017-11-01T02:48:33.120Z,0
2017-11-01T02:49:33.109Z,0
2017-11-01T02:50:32.407Z,0
2017-11-01T02:51:32.740Z,0
2017-11-01T02:52:32.717Z,0
2017-11-01T02:53:33.035Z,0
2017-11-01T02:54:32.010Z,0
2017-11-01T02:55:32.995Z,0
2017-11-01T02:56:32.650Z,0
2017-11-01T02:57:32.624Z,0
2017-11-01T02:58:32.611Z,0
2017-11-01T02:59:32.920Z,0
2017-11-01T03:00:32.909Z,0
2017-11-01T03:01:32.563Z,0
2017-11-01T03:02:32.199Z,0
2017-11-01T03:03:33.190Z,0
2017-11-01T03:04:32.498Z,0
2017-11-01T03:05:33.150Z,0
2017-11-01T03:06:32.471Z,0
2017-11-01T03:07:32.788Z,0
2017-11-01T03:08:32.789Z,0
2017-11-01T03:09:32.750Z,0
2017-11-01T03:10:32.401Z,0
2017-11-01T03:11:32.377Z,0
2017-11-01T03:12:33.031Z,0
2017-11-01T03:13:32.022Z,0
2017-11-01T03:14:32.333Z,0
2017-11-01T03:15:31.986Z,0
2017-11-01T03:16:32.307Z,0
2017-11-01T03:17:31.944Z,0
2017-11-01T03:18:32.257Z,0
2017-11-01T03:19:32.244Z,0
2017-11-01T03:20:32.555Z,0
2017-11-01T03:21:32.871Z,0
2017-11-01T03:22:32.180Z,0
2017-11-01T03:23:32.510Z,0
2017-11-01T03:24:31.486Z,0
2017-11-01T03:25:32.137Z,0
2017-11-01T03:26:31.456Z,0
2017-11-01T03:27:32.770Z,0
2017-11-01T03:28:31.749Z,0
2017-11-01T03:29:32.066Z,0
2017-11-01T03:30:32.058Z,0
2017-11-01T03:31:32.032Z,0
2017-11-01T03:32:31.678Z,0
2017-11-01T03:33:31.663Z,0
2017-11-01T03:34:31.652Z,0
2017-11-01T03:35:32.834Z,0
2017-11-01T03:36:31.943Z,0
2017-11-01T03:37:31.594Z,0
2017-11-01T03:38:32.255Z,0
2017-11-01T03:39:32.233Z,0
2017-11-01T03:40:31.538Z,0
2017-11-01T03:41:31.519Z,0
2017-11-01T03:42:32.187Z,0
2017-11-01T03:43:31.820Z,0
2017-11-01T03:44:31.812Z,0
2017-11-01T03:45:31.786Z,0
2017-11-01T03:46:32.106Z,0
2017-11-01T03:47:31.764Z,0
2017-11-01T03:48:31.399Z,0
2017-11-01T03:49:32.055Z,0
2017-11-01T03:50:31.364Z,0
2017-11-01T03:51:31.681Z,0
2017-11-01T03:52:31.675Z,0
2017-11-01T03:53:31.321Z,0
2017-11-01T03:54:31.632Z,0
2017-11-01T03:55:31.954Z,0
2017-11-01T03:56:31.599Z,0
2017-11-01T03:57:31.924Z,0
2017-11-01T03:58:31.232Z,0
2017-11-01T03:59:31.221Z,0
2017-11-01T04:00:31.863Z,0
2017-11-01T04:01:32.178Z,0
2017-11-01T04:02:30.832Z,0
2017-11-01T04:03:31.820Z,0
2017-11-01T04:04:31.789Z,0
2017-11-01T04:05:31.786Z,0
2017-11-01T04:06:31.102Z,0
2017-11-01T04:07:31.417Z,0
2017-11-01T04:08:31.401Z,0
2017-11-01T04:09:31.400Z,0
2017-11-01T04:10:31.701Z,0
2017-11-01T04:11:31.003Z,0
2017-11-01T04:12:32.007Z,0
2017-11-01T04:13:31.987Z,0
2017-11-01T04:14:31.296Z,0
2017-11-01T04:15:30.954Z,0
2017-11-01T04:16:31.585Z,0
2017-11-01T04:17:31.576Z,0
2017-11-01T04:18:31.897Z,0
2017-11-01T04:19:30.867Z,0
2017-11-01T04:20:31.514Z,0
2017-11-01T04:21:31.164Z,0
2017-11-01T04:22:31.491Z,0
2017-11-01T04:23:30.802Z,0
2017-11-01T04:24:31.451Z,0
2017-11-01T04:25:30.771Z,0
2017-11-01T04:26:31.432Z,0
2017-11-01T04:27:31.071Z,0
2017-11-01T04:28:30.713Z,0
2017-11-01T04:29:31.693Z,0
2017-11-01T04:30:31.359Z,0
2017-11-01T04:31:30.998Z,0
2017-11-01T04:32:31.310Z,0
2017-11-01T04:33:30.625Z,0
2017-11-01T04:34:31.283Z,0
2017-11-01T04:35:31.586Z,0
2017-11-01T04:36:30.917Z,0
2017-11-01T04:37:30.889Z,0
2017-11-01T04:38:30.543Z,0
2017-11-01T04:39:31.527Z,0
2017-11-01T04:40:30.506Z,0
2017-11-01T04:41:31.157Z,0
2017-11-01T04:42:30.803Z,0
2017-11-01T04:43:30.804Z,0
2017-11-01T04:44:31.101Z,0
2017-11-01T04:45:30.421Z,0
2017-11-01T04:46:31.072Z,0
2017-11-01T04:47:31.389Z,0
2017-11-01T04:48:31.054Z,0
2017-11-01T04:49:30.692Z,0
2017-11-01T04:50:30.683Z,0
2017-11-01T04:51:31.316Z,0
2017-11-01T04:52:30.639Z,0
2017-11-01T04:53:30.284Z,0
2017-11-01T04:54:31.274Z,0
2017-11-01T04:55:30.246Z,0
2017-11-01T04:56:30.573Z,0
2017-11-01T04:57:30.231Z,0
2017-11-01T04:58:31.195Z,0
2017-11-01T04:59:30.529Z,0
2017-11-01T05:00:30.828Z,0
2017-11-01T05:01:31.147Z,0
2017-11-01T05:02:30.460Z,0
2017-11-01T05:03:30.109Z,0
2017-11-01T05:04:30.084Z,0
2017-11-01T05:05:30.744Z,0
2017-11-01T05:06:30.726Z,0
2017-11-01T05:07:30.403Z,0
2017-11-01T05:08:30.025Z,0
2017-11-01T05:09:30.004Z,0
2017-11-01T05:10:30.329Z,0
2017-11-01T05:11:30.643Z,0
2017-11-01T05:12:29.961Z,0
2017-11-01T05:13:30.607Z,0
2017-11-01T05:14:30.255Z,0
2017-11-01T05:15:30.566Z,0
2017-11-01T05:16:30.548Z,0
2017-11-01T05:17:30.527Z,0
2017-11-01T05:18:30.847Z,0
2017-11-01T05:19:29.832Z,0
2017-11-01T05:20:30.147Z,0
2017-11-01T05:21:30.466Z,0
2017-11-01T05:22:30.111Z,0
2017-11-01T05:23:29.772Z,0
2017-11-01T05:24:29.752Z,0
2017-11-01T05:25:29.729Z,0
2017-11-01T05:26:30.056Z,0
2017-11-01T05:27:30.697Z,0
2017-11-01T05:28:30.342Z,0
2017-11-01T05:29:30.668Z,0
2017-11-01T05:30:30.638Z,0
2017-11-01T05:31:29.635Z,0
2017-11-01T05:32:30.277Z,0
2017-11-01T05:33:29.922Z,0
2017-11-01T05:34:29.585Z,0
2017-11-01T05:35:30.089Z,0
2017-11-01T05:36:30.549Z,0
2017-11-01T05:37:30.518Z,0
2017-11-01T05:38:29.836Z,0
2017-11-01T05:39:29.486Z,0
2017-11-01T05:40:30.140Z,0
2017-11-01T05:41:29.787Z,0
2017-11-01T05:42:29.767Z,0
2017-11-01T05:43:30.235Z,0
2017-11-01T05:44:29.395Z,0
2017-11-01T05:45:30.056Z,0
2017-11-01T05:46:30.030Z,0
2017-11-01T05:47:30.019Z,0
2017-11-01T05:48:29.997Z,0
2017-11-01T05:49:29.652Z,0
2017-11-01T05:50:29.959Z,0
2017-11-01T05:51:29.624Z,0
2017-11-01T05:52:28.928Z,0
2017-11-01T05:53:29.911Z,0
2017-11-01T05:54:30.228Z,0
2017-11-01T05:55:30.200Z,0
2017-11-01T05:56:29.530Z,0
2017-11-01T05:57:29.174Z,0
2017-11-01T05:58:29.822Z,0
2017-11-01T05:59:29.835Z,0
2017-11-01T06:00:28.794Z,0
2017-11-01T06:01:29.440Z,0
2017-11-01T06:02:29.422Z,0
2017-11-01T06:03:29.403Z,0
2017-11-01T06:04:29.539Z,0
2017-11-01T06:05:29.699Z,0
2017-11-01T06:06:29.019Z,0
2017-11-01T06:07:28.997Z,0
2017-11-01T06:08:29.319Z,0
2017-11-01T06:09:29.304Z,0
2017-11-01T06:10:29.956Z,0
2017-11-01T06:11:29.604Z,0
2017-11-01T06:12:29.592Z,0
2017-11-01T06:13:29.238Z,0
2017-11-01T06:14:29.217Z,0
2017-11-01T06:15:29.564Z,0
2017-11-01T06:16:29.848Z,0
2017-11-01T06:17:28.827Z,0
2017-11-01T06:18:29.820Z,0
2017-11-01T06:19:28.794Z,0
2017-11-01T06:20:29.110Z,0
2017-11-01T06:21:29.422Z,0
2017-11-01T06:22:29.401Z,0
2017-11-01T06:23:29.396Z,0
2017-11-01T06:24:29.381Z,0
2017-11-01T06:25:29.697Z,0
2017-11-01T06:26:28.670Z,0
2017-11-01T06:27:28.657Z,0
2017-11-01T06:28:29.323Z,0
2017-11-01T06:29:29.638Z,0
2017-11-01T06:30:29.615Z,0
2017-11-01T06:31:29.262Z,0
2017-11-01T06:32:29.231Z,0
2017-11-01T06:33:28.549Z,0
2017-11-01T06:34:29.203Z,0
2017-11-01T06:35:28.846Z,0
2017-11-01T06:36:28.836Z,0
2017-11-01T06:37:29.146Z,0
2017-11-01T06:38:28.812Z,0
2017-11-01T06:39:29.112Z,5
2017-11-01T06:40:28.429Z,5
2017-11-01T06:41:28.422Z,5
2017-11-01T06:42:29.066Z,5
2017-11-01T06:43:29.048Z,5
2017-11-01T06:44:29.030Z,5
2017-11-01T06:45:28.346Z,5
2017-11-01T06:46:28.676Z,5
2017-11-01T06:47:28.985Z,5
2017-11-01T06:48:29.289Z,5
2017-11-01T06:49:28.947Z,5
2017-11-01T06:50:28.926Z,5
2017-11-01T06:51:28.909Z,5
2017-11-01T06:52:29.225Z,5
2017-11-01T06:53:28.543Z,5
2017-11-01T06:54:28.524Z,5
2017-11-01T06:55:28.835Z,5
2017-11-01T06:56:28.150Z,5
2017-11-01T06:57:28.144Z,5
2017-11-01T06:58:28.803Z,5
2017-11-01T06:59:28.111Z,5
2017-11-01T07:00:28.424Z,5
2017-11-01T07:01:28.404Z,5
2017-11-01T07:02:28.729Z,5
2017-11-01T07:03:28.705Z,5
2017-11-01T07:04:28.355Z,5
2017-11-01T07:05:28.709Z,10
2017-11-01T07:06:28.665Z,10
2017-11-01T07:07:27.633Z,10
2017-11-01T07:08:28.287Z,10
2017-11-01T07:09:28.600Z,10
2017-11-01T07:10:28.587Z,10
2017-11-01T07:11:28.584Z,10
2017-11-01T07:12:28.903Z,10
2017-11-01T07:13:27.537Z,10
2017-11-01T07:14:27.855Z,10
2017-11-01T07:15:28.501Z,10
2017-11-01T07:16:28.151Z,10
2017-11-01T07:17:28.131Z,10
2017-11-01T07:18:27.785Z,10
2017-11-01T07:19:28.101Z,10
2017-11-01T07:20:28.079Z,10
2017-11-01T07:21:27.728Z,15
2017-11-01T07:22:27.738Z,10
2017-11-01T07:23:28.367Z,15
2017-11-01T07:24:27.675Z,15
2017-11-01T07:25:27.991Z,15
2017-11-01T07:26:28.329Z,15
2017-11-01T07:27:28.287Z,15
2017-11-01T07:28:27.933Z,15
2017-11-01T07:29:27.921Z,15
2017-11-01T07:30:27.572Z,15
2017-11-01T07:31:28.562Z,15
2017-11-01T07:32:28.565Z,20
2017-11-01T07:33:27.521Z,20
2017-11-01T07:34:27.838Z,20
2017-11-01T07:35:28.025Z,20
2017-11-01T07:36:27.470Z,20
2017-11-01T07:37:27.824Z,25
2017-11-01T07:38:28.104Z,20
2017-11-01T07:39:27.749Z,25
2017-11-01T07:40:27.730Z,25
2017-11-01T07:41:28.381Z,20
2017-11-01T07:42:27.363Z,20
2017-11-01T07:43:28.018Z,25
2017-11-01T07:44:27.990Z,30
2017-11-01T07:45:27.975Z,25
2017-11-01T07:46:27.963Z,30
2017-11-01T07:47:27.611Z,35
2017-11-01T07:48:27.939Z,30
2017-11-01T07:49:27.916Z,30
2017-11-01T07:50:27.235Z,35
2017-11-01T07:51:27.887Z,35
2017-11-01T07:52:28.189Z,40
2017-11-01T07:53:27.840Z,35
2017-11-01T07:54:27.847Z,40
2017-11-01T07:55:27.492Z,40
2017-11-01T07:56:27.787Z,40
2017-11-01T07:57:27.456Z,40
2017-11-01T07:58:27.087Z,40
2017-11-01T07:59:27.746Z,40
2017-11-01T08:00:26.723Z,35
2017-11-01T08:01:27.723Z,35
2017-11-01T08:02:27.351Z,35
2017-11-01T08:03:27.355Z,35
2017-11-01T08:04:27.329Z,30
2017-11-01T08:05:27.329Z,30
2017-11-01T08:06:27.955Z,30
2017-11-01T08:07:27.595Z,30
2017-11-01T08:08:27.251Z,25
2017-11-01T08:09:27.230Z,20
2017-11-01T08:10:27.554Z,20
2017-11-01T08:11:27.212Z,25
2017-11-01T08:12:26.854Z,25
2017-11-01T08:13:26.832Z,25
2017-11-01T08:14:27.484Z,25
2017-11-01T08:15:27.136Z,25
2017-11-01T08:16:26.790Z,25
2017-11-01T08:17:27.450Z,20
2017-11-01T08:18:27.091Z,25
2017-11-01T08:19:27.396Z,25
2017-11-01T08:20:26.731Z,25
2017-11-01T08:21:27.377Z,25
2017-11-01T08:22:27.679Z,25
2017-11-01T08:23:27.332Z,25
2017-11-01T08:24:26.649Z,25
2017-11-01T08:25:26.976Z,25
2017-11-01T08:26:27.300Z,20
2017-11-01T08:27:26.933Z,20
2017-11-01T08:28:27.247Z,25
2017-11-01T08:29:26.905Z,20
2017-11-01T08:30:26.876Z,20
2017-11-01T08:31:26.865Z,25
2017-11-01T08:32:26.517Z,25
2017-11-01T08:33:27.509Z,25
2017-11-01T08:34:26.805Z,30
2017-11-01T08:35:27.138Z,25
2017-11-01T08:36:27.113Z,25
2017-11-01T08:37:27.103Z,30
2017-11-01T08:38:27.426Z,35
2017-11-01T08:39:26.728Z,40
2017-11-01T08:40:26.709Z,45
2017-11-01T08:41:27.053Z,45
2017-11-01T08:42:26.687Z,50
2017-11-01T08:43:26.332Z,45
2017-11-01T08:44:26.642Z,50
2017-11-01T08:45:26.966Z,50
2017-11-01T08:46:26.628Z,40
2017-11-01T08:47:26.269Z,40
2017-11-01T08:48:26.590Z,40
2017-11-01T08:49:26.235Z,35
2017-11-01T08:50:27.216Z,30
2017-11-01T08:51:27.196Z,30
2017-11-01T08:52:26.188Z,35
2017-11-01T08:53:26.835Z,35
2017-11-01T08:54:27.158Z,35
2017-11-01T08:55:26.460Z,40
2017-11-01T08:56:26.451Z,40
2017-11-01T08:57:26.448Z,45
2017-11-01T08:58:26.076Z,45
2017-11-01T08:59:26.394Z,45
2017-11-01T09:00:27.045Z,45
2017-11-01T09:01:26.025Z,50
2017-11-01T09:02:26.686Z,55
2017-11-01T09:03:26.671Z,60
2017-11-01T09:04:26.312Z,55
2017-11-01T09:05:25.965Z,50
2017-11-01T09:06:26.621Z,50
2017-11-01T09:07:26.260Z,45
2017-11-01T09:08:26.248Z,50
2017-11-01T09:09:25.900Z,50
2017-11-01T09:10:26.890Z,55
2017-11-01T09:11:26.205Z,55
2017-11-01T09:12:26.177Z,60
2017-11-01T09:13:26.498Z,70
2017-11-01T09:14:26.152Z,70
2017-11-01T09:15:26.465Z,70
2017-11-01T09:16:26.105Z,75
2017-11-01T09:17:25.758Z,85
2017-11-01T09:18:26.413Z,85
2017-11-01T09:19:26.393Z,75
2017-11-01T09:20:25.716Z,75
2017-11-01T09:21:25.701Z,80
2017-11-01T09:22:26.343Z,75
2017-11-01T09:23:25.994Z,75
2017-11-01T09:24:25.993Z,60
2017-11-01T09:25:25.977Z,60
2017-11-01T09:26:25.959Z,50
2017-11-01T09:27:26.272Z,45
2017-11-01T09:28:26.265Z,45
2017-11-01T09:29:25.906Z,55
2017-11-01T09:30:25.892Z,75
2017-11-01T09:31:26.542Z,110
2017-11-01T09:32:26.521Z,130
2017-11-01T09:33:25.502Z,140
2017-11-01T09:34:25.496Z,135
2017-11-01T09:35:26.535Z,140
2017-11-01T09:36:26.119Z,125
2017-11-01T09:37:26.098Z,100
2017-11-01T09:38:25.754Z,95
2017-11-01T09:39:26.076Z,100
2017-11-01T09:40:25.723Z,90
2017-11-01T09:41:25.711Z,75
2017-11-01T09:42:25.695Z,60
2017-11-01T09:43:25.340Z,65
2017-11-01T09:44:25.337Z,85
2017-11-01T09:45:25.979Z,105
2017-11-01T09:46:25.623Z,105
2017-11-01T09:47:25.619Z,130
2017-11-01T09:48:25.919Z,115
2017-11-01T09:49:26.247Z,100
2017-11-01T09:50:25.903Z,95
2017-11-01T09:51:25.879Z,100
2017-11-01T09:52:26.194Z,120
2017-11-01T09:53:26.195Z,105
2017-11-01T09:54:25.165Z,120
2017-11-01T09:55:24.818Z,125
2017-11-01T09:56:25.133Z,105
2017-11-01T09:57:26.118Z,95
2017-11-01T09:58:25.446Z,100
2017-11-01T09:59:25.088Z,110
2017-11-01T10:00:25.732Z,105
2017-11-01T10:01:25.389Z,100
2017-11-01T10:02:26.045Z,105
2017-11-01T10:03:25.378Z,95
2017-11-01T10:04:25.340Z,100
2017-11-01T10:05:25.675Z,95
2017-11-01T10:06:25.638Z,105
2017-11-01T10:07:25.291Z,85
2017-11-01T10:08:25.613Z,95
2017-11-01T10:09:24.926Z,80
2017-11-01T10:10:25.579Z,80
2017-11-01T10:11:24.899Z,85
2017-11-01T10:12:25.229Z,90
2017-11-01T10:13:25.205Z,85
2017-11-01T10:14:25.189Z,85
2017-11-01T10:15:24.844Z,80
2017-11-01T10:16:25.160Z,90
2017-11-01T10:17:25.135Z,95
2017-11-01T10:18:24.793Z,100
2017-11-01T10:19:24.765Z,110
2017-11-01T10:20:25.087Z,100
2017-11-01T10:21:25.073Z,100
2017-11-01T10:22:25.063Z,110
2017-11-01T10:23:25.393Z,115
2017-11-01T10:24:25.361Z,115
2017-11-01T10:25:24.348Z,110
2017-11-01T10:26:24.319Z,130
2017-11-01T10:27:24.988Z,120
2017-11-01T10:28:24.963Z,135
2017-11-01T10:29:24.970Z,135
2017-11-01T10:30:24.595Z,135
2017-11-01T10:31:25.250Z,140
2017-11-01T10:32:25.232Z,130
2017-11-01T10:33:24.886Z,115
2017-11-01T10:34:24.539Z,125
2017-11-01T10:35:25.181Z,115
2017-11-01T10:36:25.185Z,110
2017-11-01T10:37:24.922Z,130
2017-11-01T10:38:25.473Z,125
2017-11-01T10:39:25.459Z,110
2017-11-01T10:40:24.784Z,105
2017-11-01T10:41:25.434Z,110
2017-11-01T10:42:25.081Z,100
2017-11-01T10:43:25.398Z,105
2017-11-01T10:44:24.731Z,105
2017-11-01T10:45:24.368Z,130
2017-11-01T10:46:24.352Z,125
2017-11-01T10:47:24.670Z,115
2017-11-01T10:48:23.986Z,110
2017-11-01T10:49:24.304Z,115
2017-11-01T10:50:24.950Z,115
2017-11-01T10:51:24.606Z,110
2017-11-01T10:52:24.933Z,115
2017-11-01T10:53:23.907Z,120
2017-11-01T10:54:24.893Z,120
2017-11-01T10:55:24.887Z,130
2017-11-01T10:56:24.862Z,115
2017-11-01T10:57:24.862Z,120
2017-11-01T10:58:25.174Z,110
2017-11-01T10:59:24.497Z,100
2017-11-01T11:00:24.474Z,90
2017-11-01T11:01:24.122Z,85
2017-11-01T11:02:25.104Z,85
2017-11-01T11:03:24.777Z,80
2017-11-01T11:04:24.079Z,80
2017-11-01T11:05:24.401Z,75
2017-11-01T11:06:24.715Z,80
2017-11-01T11:07:24.696Z,90
2017-11-01T11:08:24.352Z,95
2017-11-01T11:09:24.662Z,100
2017-11-01T11:10:24.659Z,105
2017-11-01T11:11:24.654Z,85
2017-11-01T11:12:24.284Z,85
2017-11-01T11:13:24.947Z,110
2017-11-01T11:14:24.607Z,120
2017-11-01T11:15:24.589Z,115
2017-11-01T11:16:24.562Z,105
2017-11-01T11:17:24.215Z,100
2017-11-01T11:18:24.539Z,95
2017-11-01T11:19:24.188Z,100
2017-11-01T11:20:24.502Z,105
2017-11-01T11:21:23.824Z,110
2017-11-01T11:22:24.137Z,95
2017-11-01T11:23:24.124Z,100
2017-11-01T11:24:24.456Z,95
2017-11-01T11:25:23.748Z,95
2017-11-01T11:26:24.766Z,95
2017-11-01T11:27:24.088Z,115
2017-11-01T11:28:24.035Z,120
2017-11-01T11:29:24.025Z,125
2017-11-01T11:30:24.355Z,115
2017-11-01T11:31:24.003Z,110
2017-11-01T11:32:23.658Z,120
2017-11-01T11:33:24.298Z,110
2017-11-01T11:34:24.303Z,135
2017-11-01T11:35:24.003Z,120
2017-11-01T11:36:23.579Z,100
2017-11-01T11:37:24.562Z,110
2017-11-01T11:38:24.572Z,145
2017-11-01T11:39:23.883Z,140
2017-11-01T11:40:24.534Z,175
2017-11-01T11:41:24.176Z,155
2017-11-01T11:42:23.169Z,145
2017-11-01T11:43:24.485Z,170
2017-11-01T11:44:24.131Z,290
2017-11-01T11:45:24.126Z,650
2017-11-01T11:46:24.131Z,575
2017-11-01T11:47:23.752Z,345
2017-11-01T11:48:24.077Z,275
2017-11-01T11:49:23.730Z,285
2017-11-01T11:50:24.042Z,265
2017-11-01T11:51:23.725Z,210
2017-11-01T11:52:23.681Z,175
2017-11-01T11:53:24.359Z,145
2017-11-01T11:54:23.329Z,140
2017-11-01T11:55:23.313Z,135
2017-11-01T11:56:23.290Z,135
2017-11-01T11:57:23.276Z,150
2017-11-01T11:58:22.931Z,175
2017-11-01T11:59:23.589Z,295
2017-11-01T12:00:23.574Z,365
2017-11-01T12:01:23.884Z,400
2017-11-01T12:02:23.874Z,840
2017-11-01T12:03:23.529Z,710
2017-11-01T12:04:23.850Z,780
2017-11-01T12:05:23.498Z,540
2017-11-01T12:06:23.490Z,510
2017-11-01T12:07:24.142Z,630
2017-11-01T12:08:23.475Z,755
2017-11-01T12:09:23.486Z,805
2017-11-01T12:10:23.102Z,390
2017-11-01T12:11:23.787Z,280
2017-11-01T12:12:23.753Z,315
2017-11-01T12:13:23.399Z,275
2017-11-01T12:14:23.727Z,240
2017-11-01T12:15:23.379Z,195
2017-11-01T12:16:23.045Z,180
2017-11-01T12:17:23.369Z,160
2017-11-01T12:18:23.344Z,155
2017-11-01T12:19:22.998Z,150
2017-11-01T12:20:22.995Z,145
2017-11-01T12:21:23.659Z,145
2017-11-01T12:22:23.301Z,155
2017-11-01T12:23:23.965Z,155
2017-11-01T12:24:23.632Z,155
2017-11-01T12:25:23.281Z,155
2017-11-01T12:26:22.932Z,150
2017-11-01T12:27:23.254Z,150
2017-11-01T12:28:23.240Z,150
2017-11-01T12:29:23.546Z,155
2017-11-01T12:30:23.214Z,155
2017-11-01T12:31:23.194Z,155
2017-11-01T12:32:23.851Z,160
2017-11-01T12:33:23.504Z,160
2017-11-01T12:34:23.151Z,155
2017-11-01T12:35:23.836Z,150
2017-11-01T12:36:23.801Z,150
2017-11-01T12:37:22.781Z,150
2017-11-01T12:38:23.454Z,145
2017-11-01T12:39:23.430Z,140
2017-11-01T12:40:23.427Z,145
2017-11-01T12:41:23.747Z,150
2017-11-01T12:42:22.721Z,155
2017-11-01T12:43:23.040Z,165
2017-11-01T12:44:23.357Z,175
2017-11-01T12:45:23.684Z,180
2017-11-01T12:46:23.335Z,190
2017-11-01T12:47:23.317Z,195
2017-11-01T12:48:22.980Z,210
2017-11-01T12:49:23.291Z,215
2017-11-01T12:50:23.619Z,225
2017-11-01T12:51:23.264Z,230
2017-11-01T12:52:23.258Z,240
2017-11-01T12:53:22.911Z,470
2017-11-01T12:54:22.886Z,345
2017-11-01T12:55:22.546Z,310
2017-11-01T12:56:23.532Z,325
2017-11-01T12:57:23.181Z,310
2017-11-01T12:58:22.167Z,305
2017-11-01T12:59:23.182Z,275
2017-11-01T13:00:22.137Z,270
2017-11-01T13:01:23.127Z,280
2017-11-01T13:02:23.135Z,280
2017-11-01T13:03:23.444Z,285
2017-11-01T13:04:23.105Z,275
2017-11-01T13:05:22.745Z,260
2017-11-01T13:06:23.404Z,270
2017-11-01T13:07:22.725Z,235
2017-11-01T13:08:23.074Z,225
2017-11-01T13:09:22.708Z,200
2017-11-01T13:10:23.360Z,185
2017-11-01T13:11:23.340Z,175
2017-11-01T13:12:23.339Z,180
2017-11-01T13:13:23.319Z,200
2017-11-01T13:14:22.973Z,225
2017-11-01T13:15:22.628Z,265
2017-11-01T13:16:22.948Z,515
2017-11-01T13:17:22.265Z,465
2017-11-01T13:18:23.254Z,575
2017-11-01T13:19:23.250Z,610
2017-11-01T13:20:22.560Z,590
2017-11-01T13:21:22.230Z,530
2017-11-01T13:22:22.873Z,590
2017-11-01T13:23:22.580Z,610
2017-11-01T13:24:23.197Z,590
2017-11-01T13:25:22.846Z,515
2017-11-01T13:26:23.171Z,565
2017-11-01T13:27:22.484Z,540
2017-11-01T13:28:23.143Z,530
2017-11-01T13:29:22.479Z,520
2017-11-01T13:30:22.460Z,520
2017-11-01T13:31:22.790Z,520
2017-11-01T13:32:22.439Z,515
2017-11-01T13:33:22.429Z,545
2017-11-01T13:34:23.086Z,560
2017-11-01T13:35:23.088Z,540
2017-11-01T13:36:22.604Z,535
2017-11-01T13:37:22.735Z,515
2017-11-01T13:38:22.057Z,390
2017-11-01T13:39:22.719Z,495
2017-11-01T13:40:21.706Z,500
2017-11-01T13:41:22.711Z,475
2017-11-01T13:42:22.695Z,455
2017-11-01T13:43:22.687Z,445
2017-11-01T13:44:23.166Z,420
2017-11-01T13:45:22.338Z,285
2017-11-01T13:46:22.342Z,245
2017-11-01T13:47:22.670Z,190
2017-11-01T13:48:22.320Z,180
2017-11-01T13:49:22.644Z,245
2017-11-01T13:50:21.964Z,205
2017-11-01T13:51:22.647Z,195
2017-11-01T13:52:21.964Z,195
2017-11-01T13:53:22.617Z,200
2017-11-01T13:54:21.603Z,290
2017-11-01T13:55:22.257Z,285
2017-11-01T13:56:22.589Z,270
2017-11-01T13:57:22.251Z,220
2017-11-01T13:58:22.265Z,160
2017-11-01T13:59:22.911Z,145
2017-11-01T14:00:21.888Z,140
2017-11-01T14:01:22.203Z,145
2017-11-01T14:02:22.209Z,165
2017-11-01T14:03:22.527Z,160
2017-11-01T14:04:22.184Z,125
2017-11-01T14:05:21.512Z,120
2017-11-01T14:06:22.171Z,115
2017-11-01T14:07:22.494Z,110
2017-11-01T14:08:22.491Z,110
2017-11-01T14:09:22.485Z,110
2017-11-01T14:10:22.147Z,110
2017-11-01T14:11:22.134Z,115
2017-11-01T14:12:22.446Z,115
2017-11-01T14:13:22.434Z,115
2017-11-01T14:14:22.764Z,125
2017-11-01T14:15:22.427Z,135
2017-11-01T14:16:21.727Z,130
2017-11-01T14:17:21.714Z,160
2017-11-01T14:18:22.041Z,165
2017-11-01T14:19:21.709Z,155
2017-11-01T14:20:22.686Z,165
2017-11-01T14:21:22.352Z,175